Time;durP1;ratioP1;P1;durP2;ratioP2;P2;SDS_P1;SDS_P2;PMS_P1;PMS_P2;Temp;Humidity;BMP_temperature;BMP_pressure;BME280_temperature;BME280_humidity;BME280_pressure;Samples;Min_cycle;Max_cycle;Signal;HPM_P1;HPM_P2
2023/06/04 00:00:14;;;;;;;4.38;1.20;;;17.50;79.20;;;;;;5052307;28;20232;-62
2023/06/04 00:02:42;;;;;;;1.30;0.82;;;17.40;79.30;;;;;;5052274;28;20279;-62
2023/06/04 00:05:10;;;;;;;4.20;1.02;;;17.40;79.00;;;;;;5062111;28;20575;-62
2023/06/04 00:07:38;;;;;;;3.10;1.02;;;17.40;79.30;;;;;;5068452;28;20612;-62
2023/06/04 00:10:08;;;;;;;1.45;1.10;;;17.30;79.00;;;;;;5059082;28;20284;-62
2023/06/04 00:12:36;;;;;;;3.50;1.20;;;17.30;79.30;;;;;;5061805;28;20224;-62
2023/06/04 00:15:04;;;;;;;2.05;0.88;;;17.20;79.30;;;;;;5071553;28;20266;-62
2023/06/04 00:17:32;;;;;;;6.13;1.40;;;17.20;79.20;;;;;;5071772;28;20208;-62
2023/06/04 00:20:00;;;;;;;2.08;1.20;;;17.10;79.00;;;;;;5072111;28;20294;-62
2023/06/04 00:22:28;;;;;;;2.58;1.02;;;17.10;79.80;;;;;;5071536;28;20294;-63
2023/06/04 00:24:56;;;;;;;1.65;1.20;;;17.00;79.80;;;;;;5057031;28;20716;-61
2023/06/04 00:27:25;;;;;;;1.33;1.00;;;17.00;79.70;;;;;;5055213;28;20205;-61
2023/06/04 00:29:53;;;;;;;5.53;1.27;;;17.00;79.80;;;;;;5058614;28;20281;-62
2023/06/04 00:32:21;;;;;;;5.07;1.17;;;17.00;80.20;;;;;;5058722;28;20304;-62
2023/06/04 00:34:52;;;;;;;0.90;0.90;;;17.00;80.20;;;;;;5071506;28;20209;-62
2023/06/04 00:37:20;;;;;;;4.00;0.95;;;17.00;80.10;;;;;;5071525;28;20205;-62
2023/06/04 00:39:48;;;;;;;7.05;1.40;;;17.00;80.40;;;;;;5071591;28;20208;-61
2023/06/04 00:42:15;;;;;;;1.58;0.77;;;17.00;80.40;;;;;;5071462;28;20228;-62
2023/06/04 00:44:45;;;;;;;1.80;1.00;;;17.00;80.30;;;;;;5071440;28;20201;-59
2023/06/04 00:47:13;;;;;;;6.30;1.15;;;16.90;80.40;;;;;;5071869;28;20220;-62
2023/06/04 00:49:41;;;;;;;1.20;1.10;;;16.90;80.40;;;;;;5071674;28;20236;-62
2023/06/04 00:52:09;;;;;;;1.92;0.90;;;16.90;80.50;;;;;;5071313;28;20220;-63
2023/06/04 00:54:37;;;;;;;1.30;1.20;;;16.90;80.30;;;;;;5071160;28;20209;-62
2023/06/04 00:57:06;;;;;;;2.45;0.98;;;16.90;80.50;;;;;;5071129;28;20715;-62
2023/06/04 00:59:35;;;;;;;4.88;0.85;;;16.80;80.40;;;;;;5071891;28;20204;-62
2023/06/04 01:02:06;;;;;;;1.00;1.00;;;16.80;80.40;;;;;;5075310;28;20264;-61
2023/06/04 01:04:37;;;;;;;3.50;0.90;;;16.80;80.60;;;;;;5074614;28;20246;-62
2023/06/04 01:07:05;;;;;;;1.13;1.00;;;16.70;81.10;;;;;;5074918;28;20624;-62
2023/06/04 01:09:33;;;;;;;2.10;0.90;;;16.70;81.10;;;;;;5075380;28;20251;-62
2023/06/04 01:12:04;;;;;;;3.60;1.10;;;16.60;81.20;;;;;;5075067;28;20252;-61
2023/06/04 01:14:33;;;;;;;0.80;0.80;;;16.60;81.50;;;;;;5075242;28;20273;-62
2023/06/04 01:17:08;;;;;;;2.47;1.30;;;16.50;81.50;;;;;;5074838;28;20763;-62
2023/06/04 01:20:11;;;;;;;3.80;1.30;;;16.60;82.00;;;;;;5074940;28;20208;-63
2023/06/04 01:22:43;;;;;;;1.38;0.82;;;16.50;81.90;;;;;;5074699;28;20290;-61
2023/06/04 01:25:18;;;;;;;2.75;1.00;;;16.50;81.70;;;;;;5067514;28;20749;-61
2023/06/04 01:27:49;;;;;;;1.67;0.90;;;16.50;82.20;;;;;;5067598;28;20214;-62
2023/06/04 01:30:17;;;;;;;4.40;1.30;;;16.50;82.60;;;;;;5061946;28;20275;-61
2023/06/04 01:32:47;;;;;;;1.27;1.00;;;16.40;82.40;;;;;;5061949;28;20582;-61
2023/06/04 01:35:15;;;;;;;5.75;1.05;;;16.40;82.90;;;;;;5074409;28;20212;-62
2023/06/04 01:37:44;;;;;;;2.17;1.20;;;16.40;82.70;;;;;;5075005;28;20204;-62
2023/06/04 01:40:12;;;;;;;2.08;1.02;;;16.30;83.20;;;;;;5074695;28;20243;-60
2023/06/04 01:42:41;;;;;;;3.10;1.05;;;16.20;83.20;;;;;;5074082;28;20316;-62
2023/06/04 01:45:10;;;;;;;2.47;0.98;;;16.20;83.80;;;;;;5074425;28;20315;-62
2023/06/04 01:47:38;;;;;;;2.58;0.77;;;16.20;83.90;;;;;;5074626;28;20251;-62
2023/06/04 01:50:09;;;;;;;1.10;1.00;;;16.10;83.50;;;;;;5074556;28;20699;-61
2023/06/04 01:52:37;;;;;;;3.88;1.10;;;16.10;84.10;;;;;;5074309;28;20239;-62
2023/06/04 01:55:05;;;;;;;1.25;1.15;;;16.10;84.20;;;;;;5073974;28;20742;-62
2023/06/04 01:57:33;;;;;;;7.18;1.30;;;16.10;84.60;;;;;;5074501;28;20230;-62
2023/06/04 02:00:01;;;;;;;6.68;1.13;;;16.10;84.60;;;;;;5074339;28;20665;-62
2023/06/04 02:02:29;;;;;;;2.60;1.00;;;16.10;85.20;;;;;;5073873;28;20312;-62
2023/06/04 02:04:57;;;;;;;3.15;1.30;;;16.00;85.20;;;;;;5073794;28;20204;-62
2023/06/04 02:07:26;;;;;;;2.05;1.00;;;16.10;85.20;;;;;;5074097;28;20262;-62
2023/06/04 02:09:54;;;;;;;3.22;1.02;;;16.00;85.50;;;;;;5073933;28;20751;-62
2023/06/04 02:12:22;;;;;;;3.38;1.30;;;16.00;85.70;;;;;;5073102;28;20779;-62
2023/06/04 02:14:50;;;;;;;1.05;1.00;;;16.00;85.50;;;;;;5073884;28;20243;-62
2023/06/04 02:17:18;;;;;;;1.90;1.00;;;16.00;85.50;;;;;;5073220;28;20255;-62
2023/06/04 02:19:49;;;;;;;1.05;1.00;;;16.00;85.60;;;;;;5061994;28;20229;-62
2023/06/04 02:22:17;;;;;;;1.83;1.33;;;16.00;86.10;;;;;;5053794;28;20237;-61
2023/06/04 02:24:47;;;;;;;1.27;1.15;;;15.90;86.50;;;;;;5055826;28;20193;-62
2023/06/04 02:27:15;;;;;;;3.17;1.13;;;15.90;86.50;;;;;;5066469;28;20232;-62
2023/06/04 02:29:43;;;;;;;3.55;1.00;;;15.90;86.90;;;;;;5064135;28;20192;-61
2023/06/04 02:32:11;;;;;;;2.78;1.23;;;15.80;86.60;;;;;;5057264;28;20263;-60
2023/06/04 02:34:39;;;;;;;3.83;1.10;;;15.80;87.40;;;;;;5073327;28;20237;-62
2023/06/04 02:37:07;;;;;;;1.48;0.80;;;15.70;87.40;;;;;;5073691;28;20304;-62
2023/06/04 02:39:35;;;;;;;4.13;1.20;;;15.70;87.50;;;;;;5073762;28;20247;-62
2023/06/04 02:42:04;;;;;;;3.42;0.95;;;15.70;87.60;;;;;;5073573;28;20659;-61
2023/06/04 02:44:32;;;;;;;1.30;1.10;;;15.70;87.80;;;;;;5073261;28;20248;-61
2023/06/04 02:47:00;;;;;;;3.92;0.90;;;15.70;87.60;;;;;;5073255;28;20649;-62
2023/06/04 02:49:28;;;;;;;2.83;1.27;;;15.60;88.70;;;;;;5073312;28;20209;-62
2023/06/04 02:51:56;;;;;;;3.17;1.30;;;15.60;88.20;;;;;;5073324;28;20283;-62
2023/06/04 02:54:24;;;;;;;2.38;1.00;;;15.60;88.40;;;;;;5073135;28;20858;-61
2023/06/04 02:56:53;;;;;;;2.42;1.10;;;15.50;88.40;;;;;;5072925;28;20570;-60
2023/06/04 02:59:22;;;;;;;1.20;1.00;;;15.50;89.10;;;;;;5073092;28;20730;-62
2023/06/04 03:01:50;;;;;;;1.40;1.17;;;15.50;88.80;;;;;;5072853;28;20233;-61
2023/06/04 03:04:18;;;;;;;3.15;1.05;;;15.50;89.00;;;;;;5064237;28;20228;-61
2023/06/04 03:06:47;;;;;;;2.10;0.90;;;15.40;88.90;;;;;;5054369;28;20229;-62
2023/06/04 03:09:15;;;;;;;3.13;1.17;;;15.40;89.60;;;;;;5052811;28;20241;-62
2023/06/04 03:11:43;;;;;;;1.50;1.10;;;15.30;89.50;;;;;;5052813;28;20245;-62
2023/06/04 03:14:11;;;;;;;3.03;1.10;;;15.30;90.00;;;;;;5052902;28;20206;-61
2023/06/04 03:16:41;;;;;;;2.45;0.90;;;15.30;90.10;;;;;;5052725;28;20210;-61
2023/06/04 03:19:11;;;;;;;3.50;1.00;;;15.40;90.30;;;;;;5052635;28;20259;-60
2023/06/04 03:21:39;;;;;;;1.85;1.10;;;15.40;90.30;;;;;;5052680;28;20288;-62
2023/06/04 03:24:07;;;;;;;2.65;1.00;;;15.40;90.50;;;;;;5052856;28;20778;-61
2023/06/04 03:26:35;;;;;;;3.75;1.15;;;15.30;90.20;;;;;;5069175;28;20200;-61
2023/06/04 03:29:03;;;;;;;5.93;1.05;;;15.30;90.50;;;;;;5064190;28;20244;-61
2023/06/04 03:31:32;;;;;;;1.88;0.82;;;15.30;90.80;;;;;;5065105;28;20756;-61
2023/06/04 03:34:02;;;;;;;3.08;1.10;;;15.20;90.70;;;;;;5063591;28;20646;-62
2023/06/04 03:36:31;;;;;;;5.65;1.05;;;15.20;90.80;;;;;;5065061;28;20283;-62
2023/06/04 03:38:59;;;;;;;3.70;1.30;;;15.20;90.90;;;;;;5055589;28;20202;-61
2023/06/04 03:41:27;;;;;;;3.42;1.30;;;15.20;91.20;;;;;;5072197;28;20692;-61
2023/06/04 03:43:55;;;;;;;4.03;1.10;;;15.20;91.30;;;;;;5072368;28;20707;-62
2023/06/04 03:46:25;;;;;;;1.45;1.20;;;15.20;91.30;;;;;;5071988;28;20637;-62
2023/06/04 03:48:53;;;;;;;2.58;1.30;;;15.20;91.60;;;;;;5072019;28;20251;-62
2023/06/04 03:51:22;;;;;;;4.32;1.20;;;15.20;91.70;;;;;;5072224;28;20689;-62
2023/06/04 03:53:50;;;;;;;1.27;1.15;;;15.20;92.10;;;;;;5074586;28;20364;-61
2023/06/04 03:56:18;;;;;;;4.05;1.50;;;15.20;92.00;;;;;;5079286;28;20706;-61
2023/06/04 03:58:46;;;;;;;2.75;1.60;;;15.30;92.10;;;;;;5077125;28;20847;-61
2023/06/04 04:01:14;;;;;;;2.28;1.33;;;15.30;92.40;;;;;;5077183;28;20205;-60
2023/06/04 04:03:42;;;;;;;2.63;1.33;;;15.30;92.30;;;;;;5063351;28;20739;-63
2023/06/04 04:06:11;;;;;;;4.20;1.80;;;15.30;92.60;;;;;;5071736;28;20209;-61
2023/06/04 04:08:42;;;;;;;2.90;1.30;;;15.20;92.70;;;;;;5071170;28;20303;-62
2023/06/04 04:11:10;;;;;;;1.88;1.48;;;15.20;92.80;;;;;;5072238;28;20216;-62
2023/06/04 04:13:37;;;;;;;3.47;1.15;;;15.20;93.00;;;;;;5072005;28;20312;-62
2023/06/04 04:16:05;;;;;;;4.78;1.30;;;15.20;93.10;;;;;;5071877;28;20205;-62
2023/06/04 04:18:34;;;;;;;4.43;1.60;;;15.20;93.10;;;;;;5071696;28;20641;-61
2023/06/04 04:21:02;;;;;;;2.85;1.40;;;15.30;93.50;;;;;;5071543;28;20703;-62
2023/06/04 04:23:30;;;;;;;2.25;1.23;;;15.30;93.80;;;;;;5071715;28;20290;-62
2023/06/04 04:25:59;;;;;;;3.00;1.60;;;15.30;93.60;;;;;;5065767;28;20205;-61
2023/06/04 04:28:29;;;;;;;3.88;1.60;;;15.30;93.90;;;;;;5068979;28;20208;-62
2023/06/04 04:30:59;;;;;;;2.33;1.67;;;15.30;94.40;;;;;;5060887;28;20305;-62
2023/06/04 04:33:30;;;;;;;3.70;1.50;;;15.40;94.20;;;;;;5054909;28;20307;-61
2023/06/04 04:35:59;;;;;;;6.22;1.45;;;15.40;94.50;;;;;;5067279;28;20221;-62
2023/06/04 04:38:28;;;;;;;5.75;1.55;;;15.40;94.20;;;;;;5051313;28;20253;-61
2023/06/04 04:40:57;;;;;;;2.25;1.48;;;15.40;96.00;;;;;;5051471;28;20202;-61
2023/06/04 04:43:32;;;;;;;1.35;1.25;;;15.40;97.00;;;;;;5051243;28;20236;-62
2023/06/04 04:46:00;;;;;;;2.40;0.95;;;15.40;96.50;;;;;;5051000;28;20231;-62
2023/06/04 04:48:28;;;;;;;2.60;1.10;;;15.40;96.50;;;;;;5051302;28;20251;-62
2023/06/04 04:50:56;;;;;;;5.93;1.48;;;15.40;96.50;;;;;;5051055;28;20296;-62
2023/06/04 04:53:24;;;;;;;3.92;1.60;;;15.40;96.90;;;;;;5051101;28;20689;-61
2023/06/04 04:55:52;;;;;;;2.53;1.30;;;15.40;96.90;;;;;;5050852;28;20398;-62
2023/06/04 04:58:20;;;;;;;3.05;1.20;;;15.40;96.70;;;;;;5050980;28;20284;-61
2023/06/04 05:00:49;;;;;;;2.33;1.05;;;15.50;96.60;;;;;;5051011;28;20631;-61
2023/06/04 05:03:17;;;;;;;5.57;1.70;;;15.50;97.00;;;;;;5058877;28;20315;-62
2023/06/04 05:05:45;;;;;;;5.13;1.38;;;15.50;97.50;;;;;;5067782;28;20776;-61
2023/06/04 05:08:13;;;;;;;1.83;1.05;;;15.50;97.00;;;;;;5066136;28;20240;-62
2023/06/04 05:10:41;;;;;;;1.25;1.20;;;15.60;96.80;;;;;;5068822;28;20295;-62
2023/06/04 05:13:10;;;;;;;5.57;1.35;;;15.60;96.90;;;;;;5060059;28;20222;-61
2023/06/04 05:15:39;;;;;;;4.45;1.40;;;15.70;97.20;;;;;;5079462;28;20703;-61
2023/06/04 05:18:08;;;;;;;2.33;1.23;;;15.70;97.30;;;;;;5079709;28;20205;-61
2023/06/04 05:20:37;;;;;;;1.95;1.33;;;15.80;97.60;;;;;;5074945;28;20200;-61
2023/06/04 05:23:05;;;;;;;2.97;1.50;;;15.90;97.20;;;;;;5072133;28;20308;-62
2023/06/04 05:25:33;;;;;;;3.28;1.40;;;15.90;97.10;;;;;;5057426;28;20217;-61
2023/06/04 05:28:01;;;;;;;3.40;1.20;;;15.90;96.80;;;;;;5071631;28;20276;-62
2023/06/04 05:30:29;;;;;;;2.65;1.10;;;15.90;96.80;;;;;;5072409;28;20239;-61
2023/06/04 05:32:59;;;;;;;3.60;1.48;;;15.90;96.80;;;;;;5059426;28;20279;-61
2023/06/04 05:35:28;;;;;;;4.50;1.60;;;15.90;96.50;;;;;;5090292;22;20228;-71
2023/06/04 05:37:56;;;;;;;3.15;1.20;;;15.90;96.10;;;;;;5087735;28;20251;-72
2023/06/04 05:40:24;;;;;;;9.93;1.55;;;16.00;96.50;;;;;;5088230;28;20721;-72
2023/06/04 05:42:52;;;;;;;2.25;1.38;;;16.00;97.40;;;;;;5088662;28;20291;-70
2023/06/04 05:45:20;;;;;;;1.60;1.50;;;16.10;96.80;;;;;;5088324;28;20671;-72
2023/06/04 05:47:48;;;;;;;2.65;1.13;;;16.10;96.20;;;;;;5091263;28;20277;-73
2023/06/04 05:50:16;;;;;;;1.30;1.25;;;16.20;96.70;;;;;;5088068;28;20200;-73
2023/06/04 05:52:45;;;;;;;1.70;1.02;;;16.30;96.90;;;;;;5092488;28;20231;-73
2023/06/04 05:55:14;;;;;;;4.25;1.00;;;16.40;96.00;;;;;;5092379;28;20646;-72
2023/06/04 05:57:42;;;;;;;1.45;1.10;;;16.40;96.20;;;;;;5091126;28;20224;-73
2023/06/04 06:00:13;;;;;;;2.47;1.00;;;16.50;96.10;;;;;;5092740;28;20758;-72
2023/06/04 06:02:41;;;;;;;11.48;1.17;;;16.50;97.10;;;;;;5091773;28;20695;-72
2023/06/04 06:05:09;;;;;;;1.83;1.13;;;16.60;97.40;;;;;;5091064;28;20204;-71
2023/06/04 06:07:37;;;;;;;1.40;1.35;;;16.70;97.30;;;;;;5092651;28;20273;-71
2023/06/04 06:10:08;;;;;;;5.82;1.02;;;16.70;97.30;;;;;;5093224;28;20204;-71
2023/06/04 06:12:36;;;;;;;1.17;1.17;;;16.80;97.00;;;;;;5091765;28;20212;-70
2023/06/04 06:15:05;;;;;;;1.95;1.45;;;16.90;95.90;;;;;;5091315;28;20295;-70
2023/06/04 06:17:33;;;;;;;3.08;1.20;;;16.90;94.70;;;;;;5092205;28;20784;-71
2023/06/04 06:20:05;;;;;;;1.15;1.02;;;17.00;94.10;;;;;;5091761;28;20212;-72
2023/06/04 06:22:34;;;;;;;4.03;0.93;;;17.10;93.90;;;;;;5092465;28;20204;-72
2023/06/04 06:25:02;;;;;;;1.85;1.17;;;17.10;94.40;;;;;;5091258;28;20627;-71
2023/06/04 06:27:31;;;;;;;1.17;1.17;;;17.20;94.60;;;;;;5091420;28;20315;-71
2023/06/04 06:29:59;;;;;;;1.08;0.70;;;17.20;93.30;;;;;;5091177;28;20277;-71
2023/06/04 06:32:27;;;;;;;1.58;1.13;;;17.30;93.30;;;;;;5090645;28;20208;-71
2023/06/04 06:34:55;;;;;;;3.72;1.25;;;17.30;93.20;;;;;;5085362;28;20719;-70
2023/06/04 06:37:23;;;;;;;2.13;1.45;;;17.40;92.30;;;;;;5085460;28;20215;-70
2023/06/04 06:39:51;;;;;;;0.90;0.90;;;17.40;92.80;;;;;;5090691;28;20275;-70
2023/06/04 06:42:19;;;;;;;2.50;0.90;;;17.40;92.30;;;;;;5090349;28;20292;-70
2023/06/04 06:44:48;;;;;;;5.28;1.15;;;17.50;91.60;;;;;;5090291;28;20189;-70
2023/06/04 06:47:16;;;;;;;2.88;1.00;;;17.50;91.50;;;;;;5090736;28;20314;-70
2023/06/04 06:49:44;;;;;;;3.83;1.05;;;17.50;92.80;;;;;;5090989;28;20208;-72
2023/06/04 06:52:12;;;;;;;3.00;0.80;;;17.60;92.40;;;;;;5090972;28;20250;-70
2023/06/04 06:54:40;;;;;;;1.20;1.10;;;17.70;93.00;;;;;;5089875;28;20304;-70
2023/06/04 06:57:09;;;;;;;4.30;1.08;;;17.80;93.10;;;;;;5089606;28;20248;-70
2023/06/04 06:59:37;;;;;;;2.65;1.00;;;17.90;92.80;;;;;;5090725;28;20291;-71
2023/06/04 07:02:06;;;;;;;2.85;0.80;;;17.90;92.40;;;;;;5090293;28;20230;-70
2023/06/04 07:04:34;;;;;;;4.88;1.42;;;18.00;92.00;;;;;;5089203;28;20685;-70
2023/06/04 07:07:02;;;;;;;0.90;0.90;;;18.00;92.30;;;;;;5089668;28;20223;-70
2023/06/04 07:09:30;;;;;;;4.70;1.10;;;18.00;91.50;;;;;;5090251;28;20212;-71
2023/06/04 07:11:58;;;;;;;2.63;1.20;;;18.10;92.30;;;;;;5090858;28;20247;-72
2023/06/04 07:14:26;;;;;;;1.70;0.95;;;18.20;92.90;;;;;;5090984;28;20223;-71
2023/06/04 07:16:54;;;;;;;4.07;1.15;;;18.20;92.10;;;;;;5090011;28;20208;-71
2023/06/04 07:19:23;;;;;;;3.15;1.15;;;18.30;92.20;;;;;;5089988;28;20211;-72
2023/06/04 07:21:53;;;;;;;2.92;1.40;;;18.30;91.50;;;;;;5090179;28;20294;-72
2023/06/04 07:24:21;;;;;;;2.17;0.95;;;18.40;92.00;;;;;;5089821;28;20196;-71
2023/06/04 07:26:49;;;;;;;1.88;0.80;;;18.40;93.70;;;;;;5086297;28;20724;-69
2023/06/04 07:29:17;;;;;;;5.25;1.05;;;18.50;94.50;;;;;;5084769;28;20259;-71
2023/06/04 07:31:45;;;;;;;4.65;1.20;;;18.60;92.50;;;;;;5090066;28;20222;-71
2023/06/04 07:34:13;;;;;;;1.08;1.08;;;18.70;91.60;;;;;;5089333;28;20253;-71
2023/06/04 07:36:42;;;;;;;3.15;0.90;;;18.80;91.90;;;;;;5089341;28;20243;-69
2023/06/04 07:39:10;;;;;;;2.22;0.82;;;18.80;92.00;;;;;;5089847;28;20239;-71
2023/06/04 07:41:38;;;;;;;4.78;1.20;;;18.90;92.20;;;;;;5090084;28;20256;-71
2023/06/04 07:44:06;;;;;;;2.15;1.20;;;19.00;91.60;;;;;;5087743;28;20302;-71
2023/06/04 07:46:34;;;;;;;2.63;1.10;;;19.10;92.50;;;;;;5087274;28;20251;-71
2023/06/04 07:49:02;;;;;;;2.95;1.00;;;19.10;90.90;;;;;;5089122;28;20219;-71
2023/06/04 07:51:30;;;;;;;2.30;0.98;;;19.20;92.40;;;;;;5089818;28;20223;-71
2023/06/04 07:54:00;;;;;;;2.47;0.95;;;19.30;91.50;;;;;;5089748;28;20239;-71
2023/06/04 07:56:27;;;;;;;2.92;1.33;;;19.40;91.00;;;;;;5089498;28;20275;-71
2023/06/04 07:58:56;;;;;;;5.00;1.10;;;19.40;90.30;;;;;;5089806;28;20282;-71
2023/06/04 08:01:24;;;;;;;2.17;1.13;;;19.50;90.10;;;;;;5089488;28;20240;-71
2023/06/04 08:03:52;;;;;;;2.60;1.05;;;19.60;91.80;;;;;;5089738;28;20299;-71
2023/06/04 08:06:20;;;;;;;3.15;1.10;;;19.70;91.50;;;;;;5087857;28;20672;-71
2023/06/04 08:08:49;;;;;;;2.03;1.27;;;19.80;89.60;;;;;;5087910;28;20252;-71
2023/06/04 08:11:19;;;;;;;1.08;1.00;;;19.80;89.40;;;;;;5089055;28;20253;-70
2023/06/04 08:13:47;;;;;;;1.27;1.05;;;19.90;90.20;;;;;;5089349;28;20215;-71
2023/06/04 08:16:15;;;;;;;6.60;1.40;;;20.00;90.30;;;;;;5088736;28;20309;-71
2023/06/04 08:18:43;;;;;;;3.08;1.08;;;20.10;91.00;;;;;;5086758;28;20320;-71
2023/06/04 08:21:11;;;;;;;1.92;1.17;;;20.20;90.10;;;;;;5088771;28;20354;-71
2023/06/04 08:23:39;;;;;;;2.22;0.70;;;20.30;89.20;;;;;;5088617;28;20257;-71
2023/06/04 08:26:07;;;;;;;2.60;1.08;;;20.30;91.40;;;;;;5086582;28;20222;-71
2023/06/04 08:28:38;;;;;;;2.03;1.00;;;20.50;89.50;;;;;;5088440;28;20227;-72
2023/06/04 08:31:06;;;;;;;4.50;1.30;;;20.60;90.00;;;;;;5088771;28;20683;-71
2023/06/04 08:33:34;;;;;;;4.50;1.13;;;20.70;90.20;;;;;;5089443;28;20632;-70
2023/06/04 08:36:02;;;;;;;2.78;1.00;;;20.80;90.70;;;;;;5088967;28;20309;-72
2023/06/04 08:38:30;;;;;;;1.60;0.90;;;21.00;90.00;;;;;;5090155;28;20224;-69
2023/06/04 08:41:01;;;;;;;2.28;1.00;;;21.00;88.10;;;;;;5089263;28;20193;-71
2023/06/04 08:43:29;;;;;;;1.75;1.08;;;21.00;89.70;;;;;;5087946;28;20681;-71
2023/06/04 08:46:01;;;;;;;2.35;1.08;;;21.10;88.00;;;;;;5086948;28;20292;-71
2023/06/04 08:48:29;;;;;;;3.03;0.90;;;21.10;88.10;;;;;;5087649;28;20227;-71
2023/06/04 08:50:57;;;;;;;1.00;0.95;;;21.10;89.60;;;;;;5088524;28;20257;-71
2023/06/04 08:53:25;;;;;;;2.55;0.95;;;21.30;88.30;;;;;;5087060;28;20727;-71
2023/06/04 08:55:53;;;;;;;4.22;1.10;;;21.40;88.60;;;;;;5087490;28;20692;-70
2023/06/04 08:58:21;;;;;;;1.52;0.85;;;21.60;88.10;;;;;;5087872;28;20216;-71
2023/06/04 09:00:50;;;;;;;4.82;1.30;;;21.70;86.70;;;;;;5087371;28;20253;-70
2023/06/04 09:03:20;;;;;;;2.83;1.02;;;21.80;87.30;;;;;;5087753;28;20612;-71
2023/06/04 09:05:49;;;;;;;3.08;0.82;;;21.90;89.60;;;;;;5086341;28;20207;-71
2023/06/04 09:08:18;;;;;;;3.45;1.15;;;22.00;86.50;;;;;;5085000;28;20281;-71
2023/06/04 09:10:46;;;;;;;4.38;1.20;;;22.10;85.10;;;;;;5088489;28;20200;-71
2023/06/04 09:13:14;;;;;;;1.20;1.10;;;22.10;85.80;;;;;;5086715;28;20412;-71
2023/06/04 09:15:42;;;;;;;3.03;1.10;;;22.20;85.50;;;;;;5087220;28;20717;-71
2023/06/04 09:18:10;;;;;;;2.67;1.27;;;22.40;88.10;;;;;;5087672;28;20724;-71
2023/06/04 09:20:40;;;;;;;2.28;1.00;;;22.40;81.30;;;;;;5088245;28;20215;-71
2023/06/04 09:23:14;;;;;;;1.95;1.20;;;22.50;84.90;;;;;;5092202;28;20239;-71
2023/06/04 09:25:43;;;;;;;4.88;1.50;;;22.70;82.40;;;;;;5091586;28;20187;-71
2023/06/04 09:28:11;;;;;;;5.63;1.10;;;22.90;87.60;;;;;;5091964;28;20696;-72
2023/06/04 09:30:39;;;;;;;1.05;1.00;;;23.00;83.80;;;;;;5092459;28;20748;-71
2023/06/04 09:33:08;;;;;;;4.10;1.30;;;23.20;86.60;;;;;;5092224;28;20238;-71
2023/06/04 09:35:36;;;;;;;2.80;1.23;;;23.40;84.10;;;;;;5090894;28;20685;-70
2023/06/04 09:38:06;;;;;;;3.83;1.00;;;23.60;84.10;;;;;;5091929;28;20227;-70
2023/06/04 09:40:37;;;;;;;1.10;1.00;;;23.70;81.80;;;;;;5091407;28;20279;-70
2023/06/04 09:43:05;;;;;;;2.67;1.15;;;23.80;82.70;;;;;;5094218;28;20185;-71
2023/06/04 09:45:35;;;;;;;2.45;1.00;;;24.10;82.60;;;;;;5092243;28;20676;-71
2023/06/04 09:48:04;;;;;;;3.17;1.20;;;24.10;78.70;;;;;;5092724;28;20448;-71
2023/06/04 09:50:38;;;;;;;1.92;1.15;;;24.20;85.00;;;;;;5093897;28;20218;-70
2023/06/04 09:53:15;;;;;;;1.48;1.05;;;24.40;81.80;;;;;;5093715;28;20219;-70
2023/06/04 09:55:43;;;;;;;2.28;0.90;;;24.50;78.50;;;;;;5092058;28;20211;-70
2023/06/04 09:58:12;;;;;;;2.63;1.42;;;24.60;81.00;;;;;;5092584;28;20259;-71
2023/06/04 10:00:40;;;;;;;2.72;1.05;;;24.80;78.10;;;;;;5092616;28;20200;-71
2023/06/04 10:03:08;;;;;;;2.50;1.25;;;24.80;76.10;;;;;;5090346;28;20506;-71
2023/06/04 10:05:36;;;;;;;3.10;1.25;;;24.90;73.80;;;;;;5091998;28;20196;-70
2023/06/04 10:08:04;;;;;;;3.70;1.10;;;25.10;79.20;;;;;;5111218;22;20231;-62
2023/06/04 10:10:35;;;;;;;1.65;1.10;;;25.30;78.00;;;;;;5110104;28;20735;-61
2023/06/04 10:13:05;;;;;;;2.38;1.20;;;25.30;73.10;;;;;;5110653;28;20302;-59
2023/06/04 10:15:34;;;;;;;1.20;1.15;;;25.30;77.10;;;;;;5109996;27;20318;-58
2023/06/04 10:18:03;;;;;;;6.68;1.30;;;25.50;73.80;;;;;;5111114;28;20205;-61
2023/06/04 10:20:31;;;;;;;2.00;1.20;;;25.70;76.10;;;;;;5111328;28;20204;-62
2023/06/04 10:22:59;;;;;;;2.17;1.10;;;25.90;75.50;;;;;;5111054;28;20662;-61
2023/06/04 10:25:27;;;;;;;3.58;1.05;;;26.10;72.60;;;;;;5110485;28;20266;-61
2023/06/04 10:27:58;;;;;;;2.28;1.27;;;26.00;71.90;;;;;;5111109;28;20253;-60
2023/06/04 10:30:26;;;;;;;2.78;1.00;;;26.10;74.80;;;;;;5110956;28;20686;-62
2023/06/04 10:32:54;;;;;;;1.10;0.90;;;26.40;75.50;;;;;;5109540;28;20213;-61
2023/06/04 10:35:31;;;;;;;3.78;1.05;;;26.70;74.40;;;;;;5100855;28;20219;-62
2023/06/04 10:38:08;;;;;;;2.17;1.10;;;26.90;74.00;;;;;;5099896;28;20278;-62
2023/06/04 10:40:37;;;;;;;2.85;1.13;;;27.20;70.90;;;;;;5101525;28;20331;-62
2023/06/04 10:43:09;;;;;;;2.40;1.25;;;27.40;69.90;;;;;;5093160;28;20231;-62
2023/06/04 10:45:37;;;;;;;2.63;1.00;;;27.40;67.60;;;;;;5090243;28;20667;-61
2023/06/04 10:48:06;;;;;;;1.30;1.20;;;27.60;68.20;;;;;;5102924;27;20227;-62
2023/06/04 10:50:35;;;;;;;3.83;1.17;;;27.80;68.90;;;;;;5109660;28;20195;-61
2023/06/04 10:53:03;;;;;;;3.00;1.40;;;28.10;67.60;;;;;;5109346;28;20274;-62
2023/06/04 10:55:31;;;;;;;1.83;0.98;;;28.30;69.70;;;;;;5110699;28;20276;-63
2023/06/04 10:58:00;;;;;;;5.63;1.33;;;28.40;68.10;;;;;;5108807;28;20192;-62
2023/06/04 11:00:39;;;;;;;1.77;1.20;;;28.30;65.20;;;;;;5110538;28;20191;-59
2023/06/04 11:03:07;;;;;;;1.90;1.15;;;27.80;65.70;;;;;;5110097;28;20234;-62
2023/06/04 11:05:36;;;;;;;2.03;1.35;;;27.80;64.50;;;;;;5109900;28;20645;-60
2023/06/04 11:08:04;;;;;;;1.23;1.13;;;27.70;64.20;;;;;;5107092;28;20809;-62
2023/06/04 11:10:34;;;;;;;2.80;1.42;;;27.90;65.00;;;;;;5104622;27;20223;-58
2023/06/04 11:13:03;;;;;;;1.38;1.10;;;28.30;67.00;;;;;;5106789;28;20719;-62
2023/06/04 11:15:40;;;;;;;1.85;1.40;;;28.80;66.10;;;;;;5109644;27;20330;-60
2023/06/04 11:18:10;;;;;;;1.25;1.13;;;28.70;64.10;;;;;;5107239;27;20230;-58
2023/06/04 11:20:38;;;;;;;3.15;1.42;;;29.00;63.70;;;;;;5109308;28;20223;-61
2023/06/04 11:23:06;;;;;;;2.47;1.23;;;28.90;62.70;;;;;;5110446;27;20245;-62
2023/06/04 11:25:34;;;;;;;1.25;1.15;;;29.00;63.80;;;;;;5101247;28;20302;-62
2023/06/04 11:28:02;;;;;;;2.50;1.38;;;29.30;64.60;;;;;;5102096;28;20217;-61
2023/06/04 11:30:30;;;;;;;1.75;1.50;;;29.40;60.20;;;;;;5108003;28;20578;-62
2023/06/04 11:33:03;;;;;;;4.22;1.45;;;29.60;61.60;;;;;;5101678;27;20631;-60
2023/06/04 11:35:30;;;;;;;1.77;1.20;;;30.00;62.00;;;;;;5116060;22;20219;-62
2023/06/04 11:37:59;;;;;;;1.67;1.17;;;30.30;60.60;;;;;;5090864;28;20216;-63
2023/06/04 11:40:27;;;;;;;2.97;1.40;;;30.50;62.50;;;;;;5090803;28;20227;-62
2023/06/04 11:42:55;;;;;;;5.20;1.40;;;30.70;57.60;;;;;;5091483;28;20243;-63
2023/06/04 11:45:23;;;;;;;3.80;1.20;;;30.50;56.10;;;;;;5092076;28;20260;-63
2023/06/04 11:47:53;;;;;;;3.42;1.33;;;30.50;57.90;;;;;;5092216;28;20231;-63
2023/06/04 11:50:23;;;;;;;1.55;1.30;;;30.60;58.30;;;;;;5092528;28;20214;-63
2023/06/04 11:52:53;;;;;;;3.72;1.17;;;30.80;55.80;;;;;;5094224;28;20291;-63
2023/06/04 11:55:21;;;;;;;1.92;1.35;;;30.80;58.50;;;;;;5109475;28;20207;-62
2023/06/04 11:57:49;;;;;;;3.67;1.35;;;30.90;59.60;;;;;;5091758;28;20294;-62
2023/06/04 12:00:19;;;;;;;3.80;1.50;;;31.20;59.30;;;;;;5092091;28;20204;-63
2023/06/04 12:02:51;;;;;;;1.35;1.25;;;31.40;56.70;;;;;;5090502;28;20204;-62
2023/06/04 12:05:23;;;;;;;6.05;1.60;;;31.60;58.30;;;;;;5091900;28;20211;-62
2023/06/04 12:07:51;;;;;;;4.05;1.33;;;31.80;57.10;;;;;;5092149;28;20196;-61
2023/06/04 12:10:19;;;;;;;2.67;1.45;;;31.70;55.50;;;;;;5092213;28;20257;-61
2023/06/04 12:12:47;;;;;;;1.75;1.42;;;31.80;55.60;;;;;;5071921;28;20672;-62
2023/06/04 12:15:20;;;;;;;1.52;1.40;;;31.90;55.40;;;;;;5071635;28;20225;-60
2023/06/04 12:17:51;;;;;;;3.53;1.70;;;31.90;54.30;;;;;;5080061;28;20228;-61
2023/06/04 12:20:20;;;;;;;5.50;1.50;;;32.00;55.30;;;;;;5091065;28;20837;-62
2023/06/04 12:22:52;;;;;;;2.65;1.30;;;32.00;55.00;;;;;;5091897;28;20239;-62
2023/06/04 12:25:26;;;;;;;1.67;1.25;;;32.00;56.00;;;;;;5091420;28;20215;-63
2023/06/04 12:27:54;;;;;;;1.48;1.38;;;32.30;54.50;;;;;;5091905;28;20200;-63
2023/06/04 12:30:23;;;;;;;1.98;1.60;;;32.50;53.30;;;;;;5091242;28;20200;-63
2023/06/04 12:32:51;;;;;;;2.63;1.40;;;32.60;52.30;;;;;;5071009;28;20613;-63
2023/06/04 12:35:20;;;;;;;3.17;1.20;;;32.70;54.30;;;;;;5071270;28;20213;-61
2023/06/04 12:37:49;;;;;;;2.33;1.35;;;32.70;54.70;;;;;;5071223;28;20662;-62
2023/06/04 12:40:17;;;;;;;2.47;1.30;;;32.80;53.40;;;;;;5071543;28;20287;-61
2023/06/04 12:42:45;;;;;;;3.90;1.25;;;32.80;53.40;;;;;;5071222;28;20291;-60
2023/06/04 12:45:14;;;;;;;2.35;1.70;;;32.70;51.60;;;;;;5071508;28;20286;-62
2023/06/04 12:47:42;;;;;;;1.65;1.50;;;33.00;52.10;;;;;;5091389;28;20220;-61
2023/06/04 12:50:11;;;;;;;5.30;1.60;;;33.00;50.60;;;;;;5089897;28;20216;-61
2023/06/04 12:52:38;;;;;;;2.92;1.17;;;32.90;52.70;;;;;;5089561;28;20282;-62
2023/06/04 12:55:09;;;;;;;1.48;1.38;;;33.00;52.70;;;;;;5090945;28;20216;-62